sensor_id;sensor_type;location;lat;lon;timestamp;P1;durP1;ratioP1;P2;durP2;ratioP2
8450;SDS011;4262;50.980;13.892;2023-04-03T03:32:07;8.67;;;3.90;;
8450;SDS011;4262;50.980;13.892;2023-04-03T03:34:33;12.57;;;3.77;;
8450;SDS011;4262;50.980;13.892;2023-04-03T03:37:00;7.67;;;4.23;;
8450;SDS011;4262;50.980;13.892;2023-04-03T03:39:27;14.10;;;3.70;;
8450;SDS011;4262;50.980;13.892;2023-04-03T03:41:54;12.80;;;4.20;;
8450;SDS011;4262;50.980;13.892;2023-04-03T03:44:22;11.80;;;5.20;;
8450;SDS011;4262;50.980;13.892;2023-04-03T03:46:49;8.43;;;4.13;;
8450;SDS011;4262;50.980;13.892;2023-04-03T03:49:19;9.97;;;3.80;;
8450;SDS011;4262;50.980;13.892;2023-04-03T03:51:46;15.43;;;4.47;;
8450;SDS011;4262;50.980;13.892;2023-04-03T03:54:15;7.00;;;4.30;;
8450;SDS011;4262;50.980;13.892;2023-04-03T03:56:42;8.23;;;3.70;;
8450;SDS011;4262;50.980;13.892;2023-04-03T03:59:10;10.87;;;4.37;;
8450;SDS011;4262;50.980;13.892;2023-04-03T04:01:38;7.20;;;3.90;;
8450;SDS011;4262;50.980;13.892;2023-04-03T04:04:07;8.10;;;4.03;;
8450;SDS011;4262;50.980;13.892;2023-04-03T04:06:37;11.37;;;6.30;;
8450;SDS011;4262;50.980;13.892;2023-04-03T04:09:08;11.53;;;3.93;;
8450;SDS011;4262;50.980;13.892;2023-04-03T04:11:35;9.40;;;5.30;;
8450;SDS011;4262;50.980;13.892;2023-04-03T04:14:02;13.37;;;5.30;;
8450;SDS011;4262;50.980;13.892;2023-04-03T04:16:29;10.77;;;4.90;;
8450;SDS011;4262;50.980;13.892;2023-04-03T04:19:01;12.73;;;4.63;;
8450;SDS011;4262;50.980;13.892;2023-04-03T04:21:29;8.27;;;4.43;;
8450;SDS011;4262;50.980;13.892;2023-04-03T04:23:58;7.70;;;5.30;;
8450;SDS011;4262;50.980;13.892;2023-04-03T04:26:25;12.27;;;4.60;;
8450;SDS011;4262;50.980;13.892;2023-04-03T04:28:52;10.00;;;4.30;;
8450;SDS011;4262;50.980;13.892;2023-04-03T04:31:19;7.50;;;4.43;;
8450;SDS011;4262;50.980;13.892;2023-04-03T04:33:47;9.73;;;4.03;;
8450;SDS011;4262;50.980;13.892;2023-04-03T04:36:15;14.63;;;4.70;;
8450;SDS011;4262;50.980;13.892;2023-04-03T04:38:44;9.70;;;4.40;;
8450;SDS011;4262;50.980;13.892;2023-04-03T04:41:13;12.13;;;5.00;;
8450;SDS011;4262;50.980;13.892;2023-04-03T04:43:41;7.70;;;4.00;;
8450;SDS011;4262;50.980;13.892;2023-04-03T04:46:09;11.90;;;3.90;;
8450;SDS011;4262;50.980;13.892;2023-04-03T04:48:42;7.17;;;4.30;;
8450;SDS011;4262;50.980;13.892;2023-04-03T04:51:12;8.77;;;4.67;;
8450;SDS011;4262;50.980;13.892;2023-04-03T04:53:40;12.33;;;4.67;;
8450;SDS011;4262;50.980;13.892;2023-04-03T04:56:09;10.93;;;4.30;;
8450;SDS011;4262;50.980;13.892;2023-04-03T04:58:38;16.47;;;4.90;;
8450;SDS011;4262;50.980;13.892;2023-04-03T05:01:07;15.00;;;4.70;;
8450;SDS011;4262;50.980;13.892;2023-04-03T05:03:42;11.60;;;4.13;;
8450;SDS011;4262;50.980;13.892;2023-04-03T05:06:10;10.77;;;4.27;;
8450;SDS011;4262;50.980;13.892;2023-04-03T05:08:37;11.33;;;4.67;;
8450;SDS011;4262;50.980;13.892;2023-04-03T05:11:04;9.77;;;4.30;;
8450;SDS011;4262;50.980;13.892;2023-04-03T05:13:32;7.80;;;4.30;;
8450;SDS011;4262;50.980;13.892;2023-04-03T05:16:00;9.13;;;3.87;;
8450;SDS011;4262;50.980;13.892;2023-04-03T05:18:27;12.73;;;4.07;;
8450;SDS011;4262;50.980;13.892;2023-04-03T05:20:57;13.97;;;5.00;;
8450;SDS011;4262;50.980;13.892;2023-04-03T05:23:25;10.60;;;4.67;;
8450;SDS011;4262;50.980;13.892;2023-04-03T05:25:54;10.57;;;4.20;;
8450;SDS011;4262;50.980;13.892;2023-04-03T05:28:22;10.20;;;4.43;;
8450;SDS011;4262;50.980;13.892;2023-04-03T05:30:52;10.63;;;4.37;;
8450;SDS011;4262;50.980;13.892;2023-04-03T05:33:22;15.60;;;4.17;;
8450;SDS011;4262;50.980;13.892;2023-04-03T05:35:52;10.43;;;3.97;;
8450;SDS011;4262;50.980;13.892;2023-04-03T05:38:24;15.20;;;4.10;;
8450;SDS011;4262;50.980;13.892;2023-04-03T05:40:52;8.83;;;3.77;;
8450;SDS011;4262;50.980;13.892;2023-04-03T05:43:19;11.77;;;4.40;;
8450;SDS011;4262;50.980;13.892;2023-04-03T05:45:46;16.60;;;4.67;;
8450;SDS011;4262;50.980;13.892;2023-04-03T05:48:14;9.73;;;4.53;;
8450;SDS011;4262;50.980;13.892;2023-04-03T05:50:44;14.87;;;4.43;;
8450;SDS011;4262;50.980;13.892;2023-04-03T05:53:19;7.80;;;4.83;;
8450;SDS011;4262;50.980;13.892;2023-04-03T05:55:49;8.70;;;4.10;;
8450;SDS011;4262;50.980;13.892;2023-04-03T05:58:17;9.87;;;4.47;;
8450;SDS011;4262;50.980;13.892;2023-04-03T06:00:46;9.10;;;3.80;;
8450;SDS011;4262;50.980;13.892;2023-04-03T06:03:14;9.70;;;3.63;;
8450;SDS011;4262;50.980;13.892;2023-04-03T06:05:44;10.47;;;5.20;;
8450;SDS011;4262;50.980;13.892;2023-04-03T06:08:12;7.97;;;4.70;;
8450;SDS011;4262;50.980;13.892;2023-04-03T06:10:39;11.73;;;4.03;;
8450;SDS011;4262;50.980;13.892;2023-04-03T06:13:06;10.83;;;4.37;;
8450;SDS011;4262;50.980;13.892;2023-04-03T06:15:33;8.80;;;4.70;;
8450;SDS011;4262;50.980;13.892;2023-04-03T06:18:00;11.10;;;5.00;;
8450;SDS011;4262;50.980;13.892;2023-04-03T06:20:29;8.40;;;3.93;;
8450;SDS011;4262;50.980;13.892;2023-04-03T06:22:57;8.53;;;4.63;;
8450;SDS011;4262;50.980;13.892;2023-04-03T06:25:26;10.70;;;3.80;;
8450;SDS011;4262;50.980;13.892;2023-04-03T06:27:54;12.67;;;5.10;;
8450;SDS011;4262;50.980;13.892;2023-04-03T06:30:21;11.23;;;4.53;;
8450;SDS011;4262;50.980;13.892;2023-04-03T06:32:48;12.53;;;3.93;;
8450;SDS011;4262;50.980;13.892;2023-04-03T06:35:15;9.70;;;4.67;;
8450;SDS011;4262;50.980;13.892;2023-04-03T06:37:42;8.30;;;3.90;;
8450;SDS011;4262;50.980;13.892;2023-04-03T06:40:12;13.90;;;5.20;;
8450;SDS011;4262;50.980;13.892;2023-04-03T06:42:44;13.70;;;4.50;;
8450;SDS011;4262;50.980;13.892;2023-04-03T06:45:13;7.33;;;4.13;;
8450;SDS011;4262;50.980;13.892;2023-04-03T06:47:40;8.37;;;4.63;;
8450;SDS011;4262;50.980;13.892;2023-04-03T06:50:09;11.43;;;4.93;;
8450;SDS011;4262;50.980;13.892;2023-04-03T06:52:39;9.50;;;4.80;;
8450;SDS011;4262;50.980;13.892;2023-04-03T06:55:08;8.97;;;4.73;;
8450;SDS011;4262;50.980;13.892;2023-04-03T06:57:37;9.80;;;4.20;;
8450;SDS011;4262;50.980;13.892;2023-04-03T07:00:04;7.03;;;3.87;;
8450;SDS011;4262;50.980;13.892;2023-04-03T07:02:34;16.20;;;5.57;;
8450;SDS011;4262;50.980;13.892;2023-04-03T07:05:02;7.60;;;4.77;;
8450;SDS011;4262;50.980;13.892;2023-04-03T07:07:29;8.27;;;4.40;;
8450;SDS011;4262;50.980;13.892;2023-04-03T07:09:57;7.27;;;3.80;;
8450;SDS011;4262;50.980;13.892;2023-04-03T07:12:24;9.57;;;5.00;;
8450;SDS011;4262;50.980;13.892;2023-04-03T07:14:53;22.83;;;5.03;;
8450;SDS011;4262;50.980;13.892;2023-04-03T07:17:19;10.53;;;4.83;;
8450;SDS011;4262;50.980;13.892;2023-04-03T07:19:48;14.10;;;5.83;;
8450;SDS011;4262;50.980;13.892;2023-04-03T07:22:14;22.47;;;5.73;;
8450;SDS011;4262;50.980;13.892;2023-04-03T07:24:42;11.93;;;5.33;;
8450;SDS011;4262;50.980;13.892;2023-04-03T07:27:10;12.80;;;5.20;;
8450;SDS011;4262;50.980;13.892;2023-04-03T07:29:38;7.07;;;3.93;;
8450;SDS011;4262;50.980;13.892;2023-04-03T07:32:06;12.93;;;5.20;;
8450;SDS011;4262;50.980;13.892;2023-04-03T07:34:34;11.87;;;4.63;;
8450;SDS011;4262;50.980;13.892;2023-04-03T07:37:01;10.37;;;4.57;;
8450;SDS011;4262;50.980;13.892;2023-04-03T07:39:28;14.97;;;5.10;;
8450;SDS011;4262;50.980;13.892;2023-04-03T07:41:55;14.43;;;5.03;;
8450;SDS011;4262;50.980;13.892;2023-04-03T07:44:22;9.23;;;5.07;;
8450;SDS011;4262;50.980;13.892;2023-04-03T07:46:49;14.20;;;6.17;;
8450;SDS011;4262;50.980;13.892;2023-04-03T07:49:19;9.47;;;5.53;;
8450;SDS011;4262;50.980;13.892;2023-04-03T07:51:48;9.00;;;4.47;;
8450;SDS011;4262;50.980;13.892;2023-04-03T07:54:15;14.70;;;5.63;;
8450;SDS011;4262;50.980;13.892;2023-04-03T07:56:43;8.30;;;4.87;;
8450;SDS011;4262;50.980;13.892;2023-04-03T07:59:10;13.57;;;5.67;;
8450;SDS011;4262;50.980;13.892;2023-04-03T08:01:37;11.00;;;4.33;;
8450;SDS011;4262;50.980;13.892;2023-04-03T08:04:05;9.03;;;4.30;;
8450;SDS011;4262;50.980;13.892;2023-04-03T08:06:35;9.37;;;4.17;;
8450;SDS011;4262;50.980;13.892;2023-04-03T08:09:02;11.97;;;5.90;;
8450;SDS011;4262;50.980;13.892;2023-04-03T08:11:30;14.23;;;5.00;;
8450;SDS011;4262;50.980;13.892;2023-04-03T08:13:57;8.73;;;4.67;;
8450;SDS011;4262;50.980;13.892;2023-04-03T08:16:24;11.50;;;5.00;;
8450;SDS011;4262;50.980;13.892;2023-04-03T08:18:52;14.53;;;4.67;;
8450;SDS011;4262;50.980;13.892;2023-04-03T08:21:21;10.80;;;4.73;;
8450;SDS011;4262;50.980;13.892;2023-04-03T08:23:49;10.07;;;4.53;;
8450;SDS011;4262;50.980;13.892;2023-04-03T08:26:18;9.40;;;4.53;;
8450;SDS011;4262;50.980;13.892;2023-04-03T08:28:47;11.80;;;4.80;;
8450;SDS011;4262;50.980;13.892;2023-04-03T08:31:15;8.97;;;3.57;;
8450;SDS011;4262;50.980;13.892;2023-04-03T08:33:43;10.43;;;5.00;;
8450;SDS011;4262;50.980;13.892;2023-04-03T08:36:16;12.83;;;4.63;;
8450;SDS011;4262;50.980;13.892;2023-04-03T08:38:44;9.87;;;4.43;;
8450;SDS011;4262;50.980;13.892;2023-04-03T08:41:14;8.60;;;3.50;;
8450;SDS011;4262;50.980;13.892;2023-04-03T08:43:52;16.90;;;4.37;;
8450;SDS011;4262;50.980;13.892;2023-04-03T08:46:26;11.10;;;5.07;;
8450;SDS011;4262;50.980;13.892;2023-04-03T08:49:07;11.20;;;4.00;;
8450;SDS011;4262;50.980;13.892;2023-04-03T08:51:41;9.63;;;4.10;;
8450;SDS011;4262;50.980;13.892;2023-04-03T08:54:18;12.10;;;4.37;;
8450;SDS011;4262;50.980;13.892;2023-04-03T08:56:52;11.43;;;4.60;;
8450;SDS011;4262;50.980;13.892;2023-04-03T08:59:22;9.10;;;3.50;;
8450;SDS011;4262;50.980;13.892;2023-04-03T09:01:53;9.30;;;4.17;;
8450;SDS011;4262;50.980;13.892;2023-04-03T09:04:23;15.07;;;4.37;;
8450;SDS011;4262;50.980;13.892;2023-04-03T09:06:57;8.37;;;4.10;;
8450;SDS011;4262;50.980;13.892;2023-04-03T09:09:31;9.50;;;4.33;;
8450;SDS011;4262;50.980;13.892;2023-04-03T09:12:06;11.10;;;3.63;;
8450;SDS011;4262;50.980;13.892;2023-04-03T09:14:42;9.43;;;3.40;;
8450;SDS011;4262;50.980;13.892;2023-04-03T09:17:21;7.30;;;3.43;;
8450;SDS011;4262;50.980;13.892;2023-04-03T09:20:02;13.13;;;4.63;;
8450;SDS011;4262;50.980;13.892;2023-04-03T09:22:41;11.83;;;4.53;;
8450;SDS011;4262;50.980;13.892;2023-04-03T09:25:11;13.30;;;3.60;;
8450;SDS011;4262;50.980;13.892;2023-04-03T09:27:43;10.80;;;4.10;;
8450;SDS011;4262;50.980;13.892;2023-04-03T09:30:12;9.20;;;3.70;;
8450;SDS011;4262;50.980;13.892;2023-04-03T09:32:41;9.47;;;3.77;;
8450;SDS011;4262;50.980;13.892;2023-04-03T09:35:15;9.73;;;3.63;;
8450;SDS011;4262;50.980;13.892;2023-04-03T09:37:46;10.80;;;3.27;;
8450;SDS011;4262;50.980;13.892;2023-04-03T09:40:28;13.73;;;3.27;;
8450;SDS011;4262;50.980;13.892;2023-04-03T09:43:01;11.47;;;3.40;;
8450;SDS011;4262;50.980;13.892;2023-04-03T09:45:46;12.50;;;3.73;;
8450;SDS011;4262;50.980;13.892;2023-04-03T09:48:15;9.60;;;3.27;;
8450;SDS011;4262;50.980;13.892;2023-04-03T09:50:55;8.57;;;3.10;;
8450;SDS011;4262;50.980;13.892;2023-04-03T09:53:27;11.97;;;3.50;;
8450;SDS011;4262;50.980;13.892;2023-04-03T09:55:58;12.77;;;3.77;;
8450;SDS011;4262;50.980;13.892;2023-04-03T09:58:27;10.33;;;3.80;;
8450;SDS011;4262;50.980;13.892;2023-04-03T10:00:59;13.80;;;3.53;;
8450;SDS011;4262;50.980;13.892;2023-04-03T10:03:29;11.57;;;2.80;;
8450;SDS011;4262;50.980;13.892;2023-04-03T10:06:00;7.90;;;3.13;;
8450;SDS011;4262;50.980;13.892;2023-04-03T10:08:28;8.73;;;3.00;;
8450;SDS011;4262;50.980;13.892;2023-04-03T10:11:09;11.13;;;3.53;;
8450;SDS011;4262;50.980;13.892;2023-04-03T10:13:53;9.43;;;3.80;;
8450;SDS011;4262;50.980;13.892;2023-04-03T10:16:27;9.80;;;2.83;;
8450;SDS011;4262;50.980;13.892;2023-04-03T10:21:57;9.00;;;3.10;;
8450;SDS011;4262;50.980;13.892;2023-04-03T10:24:31;8.00;;;3.13;;
8450;SDS011;4262;50.980;13.892;2023-04-03T10:27:07;9.80;;;4.40;;
8450;SDS011;4262;50.980;13.892;2023-04-03T10:29:42;11.93;;;4.03;;
8450;SDS011;4262;50.980;13.892;2023-04-03T10:32:22;10.00;;;3.63;;
8450;SDS011;4262;50.980;13.892;2023-04-03T10:35:06;9.00;;;2.93;;
8450;SDS011;4262;50.980;13.892;2023-04-03T10:37:43;10.57;;;3.87;;
8450;SDS011;4262;50.980;13.892;2023-04-03T10:40:23;9.10;;;3.00;;
8450;SDS011;4262;50.980;13.892;2023-04-03T10:42:59;9.70;;;3.27;;
8450;SDS011;4262;50.980;13.892;2023-04-03T10:45:37;18.40;;;3.10;;
8450;SDS011;4262;50.980;13.892;2023-04-03T10:48:17;8.50;;;2.83;;
8450;SDS011;4262;50.980;13.892;2023-04-03T10:50:58;10.00;;;2.83;;
8450;SDS011;4262;50.980;13.892;2023-04-03T10:53:34;15.40;;;3.37;;
8450;SDS011;4262;50.980;13.892;2023-04-03T10:56:08;8.03;;;3.00;;
8450;SDS011;4262;50.980;13.892;2023-04-03T10:58:41;8.93;;;2.60;;
8450;SDS011;4262;50.980;13.892;2023-04-03T11:01:13;10.00;;;3.17;;
8450;SDS011;4262;50.980;13.892;2023-04-03T11:03:43;6.90;;;2.80;;
8450;SDS011;4262;50.980;13.892;2023-04-03T11:06:15;7.57;;;2.97;;
8450;SDS011;4262;50.980;13.892;2023-04-03T11:08:44;7.30;;;2.80;;
8450;SDS011;4262;50.980;13.892;2023-04-03T11:11:17;8.10;;;3.17;;
8450;SDS011;4262;50.980;13.892;2023-04-03T11:13:49;8.07;;;2.67;;
8450;SDS011;4262;50.980;13.892;2023-04-03T11:16:24;7.43;;;2.90;;
8450;SDS011;4262;50.980;13.892;2023-04-03T11:18:54;7.97;;;2.90;;
8450;SDS011;4262;50.980;13.892;2023-04-03T11:21:27;9.33;;;3.70;;
8450;SDS011;4262;50.980;13.892;2023-04-03T11:23:57;7.73;;;3.27;;
8450;SDS011;4262;50.980;13.892;2023-04-03T11:26:27;8.87;;;3.13;;
8450;SDS011;4262;50.980;13.892;2023-04-03T11:29:00;7.30;;;2.60;;
8450;SDS011;4262;50.980;13.892;2023-04-03T11:31:35;7.97;;;3.07;;
8450;SDS011;4262;50.980;13.892;2023-04-03T11:34:17;7.87;;;2.80;;
8450;SDS011;4262;50.980;13.892;2023-04-03T11:36:53;15.33;;;2.67;;
8450;SDS011;4262;50.980;13.892;2023-04-03T11:39:23;6.37;;;2.60;;
8450;SDS011;4262;50.980;13.892;2023-04-03T11:41:52;7.30;;;3.20;;
8450;SDS011;4262;50.980;13.892;2023-04-03T11:44:30;7.60;;;2.60;;
8450;SDS011;4262;50.980;13.892;2023-04-03T11:47:02;8.63;;;2.87;;
8450;SDS011;4262;50.980;13.892;2023-04-03T11:49:51;8.70;;;2.40;;
8450;SDS011;4262;50.980;13.892;2023-04-03T11:55:55;6.20;;;2.10;;
8450;SDS011;4262;50.980;13.892;2023-04-03T11:58:27;14.97;;;5.30;;
8450;SDS011;4262;50.980;13.892;2023-04-03T12:00:57;13.63;;;4.30;;
8450;SDS011;4262;50.980;13.892;2023-04-03T12:06:43;12.20;;;4.03;;
8450;SDS011;4262;50.980;13.892;2023-04-03T12:12:31;7.97;;;2.53;;
8450;SDS011;4262;50.980;13.892;2023-04-03T12:15:23;9.77;;;2.60;;
8450;SDS011;4262;50.980;13.892;2023-04-03T12:17:53;8.73;;;2.73;;
8450;SDS011;4262;50.980;13.892;2023-04-03T12:23:25;8.13;;;2.90;;
8450;SDS011;4262;50.980;13.892;2023-04-03T12:25:58;8.10;;;3.17;;
8450;SDS011;4262;50.980;13.892;2023-04-03T12:28:30;9.50;;;3.77;;
8450;SDS011;4262;50.980;13.892;2023-04-03T12:31:04;6.97;;;3.13;;
8450;SDS011;4262;50.980;13.892;2023-04-03T12:33:33;11.90;;;3.20;;
8450;SDS011;4262;50.980;13.892;2023-04-03T12:36:11;12.30;;;3.10;;
8450;SDS011;4262;50.980;13.892;2023-04-03T12:38:52;8.10;;;3.83;;
8450;SDS011;4262;50.980;13.892;2023-04-03T12:41:30;11.73;;;4.67;;
8450;SDS011;4262;50.980;13.892;2023-04-03T12:44:08;14.13;;;4.20;;
8450;SDS011;4262;50.980;13.892;2023-04-03T12:47:08;11.87;;;3.20;;
8450;SDS011;4262;50.980;13.892;2023-04-03T12:49:48;10.47;;;3.20;;
8450;SDS011;4262;50.980;13.892;2023-04-03T12:52:17;10.13;;;2.67;;
8450;SDS011;4262;50.980;13.892;2023-04-03T12:54:50;10.10;;;2.83;;
8450;SDS011;4262;50.980;13.892;2023-04-03T12:57:18;10.97;;;2.70;;
8450;SDS011;4262;50.980;13.892;2023-04-03T12:59:47;7.03;;;2.70;;
8450;SDS011;4262;50.980;13.892;2023-04-03T13:02:19;17.10;;;3.30;;
8450;SDS011;4262;50.980;13.892;2023-04-03T13:04:49;8.90;;;3.20;;
8450;SDS011;4262;50.980;13.892;2023-04-03T13:07:21;9.00;;;2.70;;
8450;SDS011;4262;50.980;13.892;2023-04-03T13:10:04;7.07;;;3.47;;
8450;SDS011;4262;50.980;13.892;2023-04-03T13:12:48;7.97;;;2.97;;
8450;SDS011;4262;50.980;13.892;2023-04-03T13:15:18;8.60;;;3.37;;
8450;SDS011;4262;50.980;13.892;2023-04-03T13:17:49;11.13;;;3.77;;
8450;SDS011;4262;50.980;13.892;2023-04-03T13:20:19;9.50;;;3.00;;
8450;SDS011;4262;50.980;13.892;2023-04-03T13:22:50;14.70;;;3.93;;
8450;SDS011;4262;50.980;13.892;2023-04-03T13:25:21;8.03;;;3.10;;
8450;SDS011;4262;50.980;13.892;2023-04-03T13:27:51;7.50;;;3.10;;
8450;SDS011;4262;50.980;13.892;2023-04-03T13:30:23;11.67;;;2.70;;
8450;SDS011;4262;50.980;13.892;2023-04-03T13:32:53;10.97;;;3.27;;
8450;SDS011;4262;50.980;13.892;2023-04-03T13:35:27;7.40;;;3.10;;
8450;SDS011;4262;50.980;13.892;2023-04-03T13:37:57;14.80;;;2.90;;
8450;SDS011;4262;50.980;13.892;2023-04-03T13:40:26;6.80;;;2.53;;
8450;SDS011;4262;50.980;13.892;2023-04-03T13:43:01;8.30;;;2.83;;
8450;SDS011;4262;50.980;13.892;2023-04-03T13:45:31;7.90;;;2.83;;
8450;SDS011;4262;50.980;13.892;2023-04-03T13:48:07;7.10;;;2.77;;
8450;SDS011;4262;50.980;13.892;2023-04-03T13:50:50;7.67;;;2.80;;
8450;SDS011;4262;50.980;13.892;2023-04-03T13:53:21;8.00;;;3.07;;
8450;SDS011;4262;50.980;13.892;2023-04-03T13:55:53;8.80;;;3.40;;
8450;SDS011;4262;50.980;13.892;2023-04-03T13:58:25;7.40;;;2.83;;
8450;SDS011;4262;50.980;13.892;2023-04-03T14:00:54;9.83;;;3.13;;
8450;SDS011;4262;50.980;13.892;2023-04-03T14:03:22;8.37;;;2.90;;
8450;SDS011;4262;50.980;13.892;2023-04-03T14:05:52;8.87;;;3.13;;
8450;SDS011;4262;50.980;13.892;2023-04-03T14:08:20;7.93;;;3.43;;
8450;SDS011;4262;50.980;13.892;2023-04-03T14:10:48;7.10;;;2.87;;
8450;SDS011;4262;50.980;13.892;2023-04-03T14:13:15;10.43;;;2.87;;
8450;SDS011;4262;50.980;13.892;2023-04-03T14:15:44;10.40;;;3.77;;
8450;SDS011;4262;50.980;13.892;2023-04-03T14:18:15;7.97;;;3.17;;
8450;SDS011;4262;50.980;13.892;2023-04-03T14:20:49;12.60;;;3.30;;
8450;SDS011;4262;50.980;13.892;2023-04-03T14:23:16;7.60;;;2.97;;
8450;SDS011;4262;50.980;13.892;2023-04-03T14:25:43;10.60;;;3.37;;
8450;SDS011;4262;50.980;13.892;2023-04-03T14:28:15;10.80;;;4.80;;
8450;SDS011;4262;50.980;13.892;2023-04-03T14:30:44;11.87;;;5.13;;
8450;SDS011;4262;50.980;13.892;2023-04-03T14:33:13;9.53;;;3.90;;
8450;SDS011;4262;50.980;13.892;2023-04-03T14:35:43;14.20;;;3.60;;
8450;SDS011;4262;50.980;13.892;2023-04-03T14:38:19;7.73;;;3.23;;
8450;SDS011;4262;50.980;13.892;2023-04-03T14:40:48;11.07;;;3.73;;
8450;SDS011;4262;50.980;13.892;2023-04-03T14:43:15;7.07;;;2.90;;
8450;SDS011;4262;50.980;13.892;2023-04-03T14:45:43;8.50;;;3.23;;
8450;SDS011;4262;50.980;13.892;2023-04-03T14:48:09;10.20;;;3.30;;
8450;SDS011;4262;50.980;13.892;2023-04-03T14:50:45;6.90;;;3.17;;
8450;SDS011;4262;50.980;13.892;2023-04-03T14:53:12;11.13;;;2.90;;
8450;SDS011;4262;50.980;13.892;2023-04-03T14:55:40;7.47;;;3.10;;
8450;SDS011;4262;50.980;13.892;2023-04-03T14:58:12;9.33;;;3.73;;
8450;SDS011;4262;50.980;13.892;2023-04-03T15:00:40;7.20;;;3.20;;
8450;SDS011;4262;50.980;13.892;2023-04-03T15:03:11;9.00;;;3.10;;
8450;SDS011;4262;50.980;13.892;2023-04-03T15:05:39;13.63;;;3.60;;
8450;SDS011;4262;50.980;13.892;2023-04-03T15:08:09;10.50;;;3.63;;
8450;SDS011;4262;50.980;13.892;2023-04-03T15:10:45;9.10;;;3.43;;
8450;SDS011;4262;50.980;13.892;2023-04-03T15:13:12;9.77;;;3.53;;
8450;SDS011;4262;50.980;13.892;2023-04-03T15:15:39;8.27;;;3.23;;
8450;SDS011;4262;50.980;13.892;2023-04-03T15:18:09;12.73;;;3.50;;
8450;SDS011;4262;50.980;13.892;2023-04-03T15:20:40;9.17;;;3.27;;
8450;SDS011;4262;50.980;13.892;2023-04-03T15:23:10;7.80;;;3.03;;
8450;SDS011;4262;50.980;13.892;2023-04-03T15:25:38;10.93;;;3.67;;
8450;SDS011;4262;50.980;13.892;2023-04-03T15:28:06;7.57;;;3.00;;
8450;SDS011;4262;50.980;13.892;2023-04-03T15:30:36;7.10;;;2.77;;
8450;SDS011;4262;50.980;13.892;2023-04-03T15:33:05;8.37;;;3.60;;
8450;SDS011;4262;50.980;13.892;2023-04-03T15:35:32;8.70;;;3.67;;
8450;SDS011;4262;50.980;13.892;2023-04-03T15:38:01;8.93;;;3.70;;
8450;SDS011;4262;50.980;13.892;2023-04-03T15:40:31;10.73;;;3.70;;
8450;SDS011;4262;50.980;13.892;2023-04-03T15:42:58;10.03;;;3.27;;
8450;SDS011;4262;50.980;13.892;2023-04-03T15:45:25;9.63;;;3.20;;
8450;SDS011;4262;50.980;13.892;2023-04-03T15:47:55;9.50;;;4.40;;
8450;SDS011;4262;50.980;13.892;2023-04-03T15:50:23;14.80;;;4.40;;
8450;SDS011;4262;50.980;13.892;2023-04-03T15:52:50;10.13;;;4.07;;
8450;SDS011;4262;50.980;13.892;2023-04-03T15:55:20;9.80;;;3.47;;
8450;SDS011;4262;50.980;13.892;2023-04-03T15:57:50;11.53;;;3.50;;
8450;SDS011;4262;50.980;13.892;2023-04-03T16:00:18;8.63;;;3.33;;
8450;SDS011;4262;50.980;13.892;2023-04-03T16:02:45;11.87;;;4.00;;
8450;SDS011;4262;50.980;13.892;2023-04-03T16:05:13;8.50;;;3.27;;
8450;SDS011;4262;50.980;13.892;2023-04-03T16:07:44;10.07;;;3.93;;
8450;SDS011;4262;50.980;13.892;2023-04-03T16:10:13;11.20;;;3.63;;
8450;SDS011;4262;50.980;13.892;2023-04-03T16:12:42;6.47;;;3.37;;
8450;SDS011;4262;50.980;13.892;2023-04-03T16:15:10;11.20;;;4.37;;
8450;SDS011;4262;50.980;13.892;2023-04-03T16:17:39;9.70;;;3.47;;
8450;SDS011;4262;50.980;13.892;2023-04-03T16:20:08;7.83;;;4.20;;
8450;SDS011;4262;50.980;13.892;2023-04-03T16:22:37;10.97;;;3.93;;
8450;SDS011;4262;50.980;13.892;2023-04-03T16:25:05;10.77;;;5.87;;
8450;SDS011;4262;50.980;13.892;2023-04-03T16:27:34;13.43;;;6.33;;
8450;SDS011;4262;50.980;13.892;2023-04-03T16:30:02;9.50;;;4.20;;
8450;SDS011;4262;50.980;13.892;2023-04-03T16:32:30;12.00;;;5.00;;
8450;SDS011;4262;50.980;13.892;2023-04-03T16:34:59;8.43;;;3.73;;
8450;SDS011;4262;50.980;13.892;2023-04-03T16:37:27;7.07;;;4.00;;
8450;SDS011;4262;50.980;13.892;2023-04-03T16:39:54;8.00;;;3.80;;
8450;SDS011;4262;50.980;13.892;2023-04-03T16:42:21;13.10;;;4.50;;
8450;SDS011;4262;50.980;13.892;2023-04-03T16:44:48;10.70;;;4.00;;
8450;SDS011;4262;50.980;13.892;2023-04-03T16:47:14;9.00;;;3.67;;
8450;SDS011;4262;50.980;13.892;2023-04-03T16:49:46;9.83;;;3.80;;
8450;SDS011;4262;50.980;13.892;2023-04-03T16:52:13;13.93;;;4.50;;
8450;SDS011;4262;50.980;13.892;2023-04-03T16:54:40;8.00;;;3.80;;
8450;SDS011;4262;50.980;13.892;2023-04-03T16:57:07;9.77;;;3.53;;
8450;SDS011;4262;50.980;13.892;2023-04-03T16:59:36;8.17;;;3.60;;
8450;SDS011;4262;50.980;13.892;2023-04-03T17:02:02;6.90;;;3.40;;
8450;SDS011;4262;50.980;13.892;2023-04-03T17:04:31;7.90;;;4.00;;
8450;SDS011;4262;50.980;13.892;2023-04-03T17:06:59;8.67;;;4.33;;
8450;SDS011;4262;50.980;13.892;2023-04-03T17:09:32;8.33;;;4.37;;
8450;SDS011;4262;50.980;13.892;2023-04-03T17:11:59;7.43;;;3.93;;
8450;SDS011;4262;50.980;13.892;2023-04-03T17:14:26;9.43;;;4.30;;
8450;SDS011;4262;50.980;13.892;2023-04-03T17:16:53;8.17;;;3.83;;
8450;SDS011;4262;50.980;13.892;2023-04-03T17:19:21;7.40;;;4.10;;
8450;SDS011;4262;50.980;13.892;2023-04-03T17:21:49;9.30;;;3.70;;
8450;SDS011;4262;50.980;13.892;2023-04-03T17:24:17;9.90;;;4.40;;
8450;SDS011;4262;50.980;13.892;2023-04-03T17:26:44;8.23;;;4.10;;
8450;SDS011;4262;50.980;13.892;2023-04-03T17:29:13;10.97;;;4.50;;
8450;SDS011;4262;50.980;13.892;2023-04-03T17:31:40;11.73;;;4.20;;
8450;SDS011;4262;50.980;13.892;2023-04-03T17:34:08;8.17;;;4.50;;
8450;SDS011;4262;50.980;13.892;2023-04-03T17:36:36;9.37;;;3.90;;
8450;SDS011;4262;50.980;13.892;2023-04-03T17:39:04;7.70;;;3.90;;
8450;SDS011;4262;50.980;13.892;2023-04-03T17:41:32;8.27;;;4.13;;
8450;SDS011;4262;50.980;13.892;2023-04-03T17:43:59;8.63;;;4.30;;
8450;SDS011;4262;50.980;13.892;2023-04-03T17:46:26;9.37;;;3.70;;
8450;SDS011;4262;50.980;13.892;2023-04-03T17:48:54;9.80;;;4.20;;
8450;SDS011;4262;50.980;13.892;2023-04-03T17:51:23;7.70;;;4.37;;
8450;SDS011;4262;50.980;13.892;2023-04-03T17:53:51;8.97;;;4.70;;
8450;SDS011;4262;50.980;13.892;2023-04-03T17:56:19;8.50;;;4.30;;
8450;SDS011;4262;50.980;13.892;2023-04-03T17:58:50;9.43;;;5.30;;
8450;SDS011;4262;50.980;13.892;2023-04-03T18:01:18;15.30;;;7.17;;
8450;SDS011;4262;50.980;13.892;2023-04-03T18:03:47;18.80;;;8.50;;
8450;SDS011;4262;50.980;13.892;2023-04-03T18:06:15;19.70;;;9.20;;
8450;SDS011;4262;50.980;13.892;2023-04-03T18:08:44;22.67;;;10.53;;
8450;SDS011;4262;50.980;13.892;2023-04-03T18:11:12;12.67;;;7.30;;
8450;SDS011;4262;50.980;13.892;2023-04-03T18:13:39;14.43;;;8.43;;
8450;SDS011;4262;50.980;13.892;2023-04-03T18:16:09;12.27;;;7.23;;
8450;SDS011;4262;50.980;13.892;2023-04-03T18:18:37;8.90;;;4.10;;
8450;SDS011;4262;50.980;13.892;2023-04-03T18:21:05;9.67;;;4.93;;
8450;SDS011;4262;50.980;13.892;2023-04-03T18:23:34;11.20;;;3.90;;
8450;SDS011;4262;50.980;13.892;2023-04-03T18:26:05;13.43;;;4.20;;
8450;SDS011;4262;50.980;13.892;2023-04-03T18:28:34;9.80;;;5.10;;
8450;SDS011;4262;50.980;13.892;2023-04-03T18:31:01;11.80;;;6.07;;
8450;SDS011;4262;50.980;13.892;2023-04-03T18:33:30;14.77;;;6.70;;
8450;SDS011;4262;50.980;13.892;2023-04-03T18:35:57;17.77;;;6.90;;
8450;SDS011;4262;50.980;13.892;2023-04-03T18:38:24;15.57;;;6.50;;
8450;SDS011;4262;50.980;13.892;2023-04-03T18:40:51;14.50;;;6.63;;
8450;SDS011;4262;50.980;13.892;2023-04-03T18:43:18;14.33;;;7.60;;
8450;SDS011;4262;50.980;13.892;2023-04-03T18:45:45;11.47;;;5.33;;
8450;SDS011;4262;50.980;13.892;2023-04-03T18:48:13;14.40;;;5.47;;
8450;SDS011;4262;50.980;13.892;2023-04-03T18:50:41;13.00;;;4.67;;
8450;SDS011;4262;50.980;13.892;2023-04-03T18:53:09;8.30;;;4.33;;
8450;SDS011;4262;50.980;13.892;2023-04-03T18:55:36;10.10;;;4.30;;
8450;SDS011;4262;50.980;13.892;2023-04-03T18:58:04;8.83;;;5.00;;
8450;SDS011;4262;50.980;13.892;2023-04-03T19:00:31;21.10;;;5.20;;